New York, New York
Traffic Map
Current Weather Conditions
New York, New York
Clear
Clear
21°
Feels Like: 21°
Wind Chill: 21° Ceiling: Unl
Heat Index: 21° Visibility: 9mi
Dew Point: 19° Wind: 6mph
Humidity: 90% Direction: ° ()
Pressure: 29.89in Gusts: 0mph
Raw Report DataKNYC 041051Z AUTO VRB05KT 9SM CLR 21/19 A2989 RMK AO2 RAB03E15 SLP111 P0000 T02060189 $
Traffic Incident Summary
Active as of:
Severity:
Category:
InformationThere was an issue retrieving the traffic information for this location. Please try a different location or try again shortly.
Advertisements
Track Severe Weather on mobile